Merle K (Mudhole) Smith Airport Cordova US
ICAO: PACV
IATA:
Category: Medium
Scheduled Services:

Elevation: 54 ft
TransAlt. 18000 ft.

Airport Communications:
ANCHORAGE APP/DEP:133.6
ASOS:134.8
CTAF:123.6
JUNEAU RDO:122.2

PACV Zoom In..

If you have problems with the map follow the link
https://www.worldairports.se/pages/airport.php?
ICAO=PACV

Runways:

(A) RW 09 length 7500 ft width 150 ft
---- / hdg 95

(B) RW 16 length 1899 ft width 30 ft
---- / hdg 162

(C) RW 27 length 7500 ft width 150 ft
ILS 110.70 / hdg 275

(D) RW 34 length 1899 ft width 30 ft
---- / hdg 342

Location; PACV
Day. 27 / Time. 05.53 Zulu
* Altimeter: 29.19
* Temperature: 4/° c. 39.2°f.
* Wind from: 270° Speed 03 kn.
Dewpoint: 09° c.
Visibility: 10 Statute Miles.
Clouds: Scattered 2300 ft.
Clouds: Broken 3300 ft.
Clouds: Broken 12000 ft.

PACV 270553Z 27003KT 10SM SCT023 BKN033 BKN120 M04/M06 A2919 RMK AO2 SLP887 SNE17 4/009 P0001 60014 T10441056 11044 21078 51014


Wind From 270°
Speed 03 kn.

 
 
jpsmedia worldairports.se 2020   terms of use